sensor_id;sensor_type;location;lat;lon;timestamp;P1;durP1;ratioP1;P2;durP2;ratioP2
79308;SDS011;68767;53.078;7.386;2023-05-16T00:01:22;18.17;;;2.67;;
79308;SDS011;68767;53.078;7.386;2023-05-16T00:03:50;11.15;;;2.60;;
79308;SDS011;68767;53.078;7.386;2023-05-16T00:06:17;13.73;;;2.38;;
79308;SDS011;68767;53.078;7.386;2023-05-16T00:08:43;15.30;;;2.75;;
79308;SDS011;68767;53.078;7.386;2023-05-16T00:11:10;12.95;;;3.00;;
79308;SDS011;68767;53.078;7.386;2023-05-16T00:13:37;12.27;;;2.53;;
79308;SDS011;68767;53.078;7.386;2023-05-16T00:16:04;13.88;;;2.40;;
79308;SDS011;68767;53.078;7.386;2023-05-16T00:18:32;16.05;;;2.50;;
79308;SDS011;68767;53.078;7.386;2023-05-16T00:20:59;14.18;;;3.70;;
79308;SDS011;68767;53.078;7.386;2023-05-16T00:23:25;13.30;;;3.47;;
79308;SDS011;68767;53.078;7.386;2023-05-16T00:25:52;10.50;;;2.60;;
79308;SDS011;68767;53.078;7.386;2023-05-16T00:28:19;14.60;;;2.75;;
79308;SDS011;68767;53.078;7.386;2023-05-16T00:30:46;17.65;;;4.38;;
79308;SDS011;68767;53.078;7.386;2023-05-16T00:33:14;10.88;;;2.80;;
79308;SDS011;68767;53.078;7.386;2023-05-16T00:35:41;14.95;;;3.15;;
79308;SDS011;68767;53.078;7.386;2023-05-16T00:38:09;12.75;;;2.78;;
79308;SDS011;68767;53.078;7.386;2023-05-16T00:40:36;18.95;;;3.40;;
79308;SDS011;68767;53.078;7.386;2023-05-16T00:43:03;19.23;;;4.40;;
79308;SDS011;68767;53.078;7.386;2023-05-16T00:45:30;9.30;;;2.17;;
79308;SDS011;68767;53.078;7.386;2023-05-16T00:47:57;18.80;;;2.95;;
79308;SDS011;68767;53.078;7.386;2023-05-16T00:50:24;16.45;;;3.28;;
79308;SDS011;68767;53.078;7.386;2023-05-16T00:52:51;13.20;;;2.58;;
79308;SDS011;68767;53.078;7.386;2023-05-16T00:55:18;14.18;;;2.55;;
79308;SDS011;68767;53.078;7.386;2023-05-16T00:57:45;13.55;;;3.17;;
79308;SDS011;68767;53.078;7.386;2023-05-16T01:00:12;11.18;;;2.85;;
79308;SDS011;68767;53.078;7.386;2023-05-16T01:02:40;15.48;;;2.40;;
79308;SDS011;68767;53.078;7.386;2023-05-16T01:05:09;12.70;;;2.25;;
79308;SDS011;68767;53.078;7.386;2023-05-16T01:07:38;19.45;;;2.53;;
79308;SDS011;68767;53.078;7.386;2023-05-16T01:10:06;14.88;;;2.63;;
79308;SDS011;68767;53.078;7.386;2023-05-16T01:20:21;16.38;;;2.90;;
79308;SDS011;68767;53.078;7.386;2023-05-16T01:23:03;14.52;;;2.40;;
79308;SDS011;68767;53.078;7.386;2023-05-16T01:25:31;14.20;;;2.92;;
79308;SDS011;68767;53.078;7.386;2023-05-16T01:28:02;13.88;;;2.38;;
79308;SDS011;68767;53.078;7.386;2023-05-16T01:30:34;12.52;;;2.45;;
79308;SDS011;68767;53.078;7.386;2023-05-16T01:33:01;21.35;;;2.95;;
79308;SDS011;68767;53.078;7.386;2023-05-16T01:35:28;9.40;;;2.00;;
79308;SDS011;68767;53.078;7.386;2023-05-16T01:42:56;12.30;;;2.00;;
79308;SDS011;68767;53.078;7.386;2023-05-16T01:45:26;15.07;;;3.72;;
79308;SDS011;68767;53.078;7.386;2023-05-16T01:47:59;12.43;;;2.35;;
79308;SDS011;68767;53.078;7.386;2023-05-16T01:50:31;16.10;;;2.85;;
79308;SDS011;68767;53.078;7.386;2023-05-16T01:52:59;15.55;;;2.30;;
79308;SDS011;68767;53.078;7.386;2023-05-16T01:58:10;11.60;;;1.75;;
79308;SDS011;68767;53.078;7.386;2023-05-16T02:00:37;15.10;;;2.20;;
79308;SDS011;68767;53.078;7.386;2023-05-16T02:03:04;8.95;;;2.03;;
79308;SDS011;68767;53.078;7.386;2023-05-16T02:05:32;12.77;;;2.00;;
79308;SDS011;68767;53.078;7.386;2023-05-16T02:07:58;10.20;;;2.08;;
79308;SDS011;68767;53.078;7.386;2023-05-16T02:10:26;17.27;;;2.25;;
79308;SDS011;68767;53.078;7.386;2023-05-16T02:12:53;15.00;;;2.45;;
79308;SDS011;68767;53.078;7.386;2023-05-16T02:15:19;17.58;;;2.13;;
79308;SDS011;68767;53.078;7.386;2023-05-16T02:17:47;11.30;;;2.10;;
79308;SDS011;68767;53.078;7.386;2023-05-16T02:20:14;17.85;;;2.53;;
79308;SDS011;68767;53.078;7.386;2023-05-16T02:22:41;18.38;;;2.72;;
79308;SDS011;68767;53.078;7.386;2023-05-16T02:25:09;12.18;;;2.55;;
79308;SDS011;68767;53.078;7.386;2023-05-16T02:27:36;12.85;;;2.08;;
79308;SDS011;68767;53.078;7.386;2023-05-16T02:30:03;17.52;;;2.25;;
79308;SDS011;68767;53.078;7.386;2023-05-16T02:32:31;9.48;;;2.22;;
79308;SDS011;68767;53.078;7.386;2023-05-16T02:34:58;16.73;;;2.88;;
79308;SDS011;68767;53.078;7.386;2023-05-16T02:37:25;19.67;;;2.67;;
79308;SDS011;68767;53.078;7.386;2023-05-16T02:39:51;8.38;;;1.90;;
79308;SDS011;68767;53.078;7.386;2023-05-16T02:42:18;14.77;;;3.00;;
79308;SDS011;68767;53.078;7.386;2023-05-16T02:44:45;14.13;;;2.60;;
79308;SDS011;68767;53.078;7.386;2023-05-16T02:47:12;22.67;;;3.50;;
79308;SDS011;68767;53.078;7.386;2023-05-16T02:49:38;14.13;;;2.47;;
79308;SDS011;68767;53.078;7.386;2023-05-16T02:52:05;10.73;;;2.20;;
79308;SDS011;68767;53.078;7.386;2023-05-16T02:54:32;13.23;;;2.13;;
79308;SDS011;68767;53.078;7.386;2023-05-16T02:56:59;13.13;;;2.00;;
79308;SDS011;68767;53.078;7.386;2023-05-16T02:59:26;18.75;;;2.65;;
79308;SDS011;68767;53.078;7.386;2023-05-16T03:01:53;14.25;;;2.83;;
79308;SDS011;68767;53.078;7.386;2023-05-16T03:04:20;12.52;;;2.30;;
79308;SDS011;68767;53.078;7.386;2023-05-16T03:06:47;16.20;;;2.95;;
79308;SDS011;68767;53.078;7.386;2023-05-16T03:09:14;9.57;;;2.33;;
79308;SDS011;68767;53.078;7.386;2023-05-16T03:11:41;17.58;;;2.20;;
79308;SDS011;68767;53.078;7.386;2023-05-16T03:14:09;10.65;;;3.17;;
79308;SDS011;68767;53.078;7.386;2023-05-16T03:16:37;18.35;;;2.90;;
79308;SDS011;68767;53.078;7.386;2023-05-16T03:19:05;22.42;;;3.08;;
79308;SDS011;68767;53.078;7.386;2023-05-16T03:21:32;15.02;;;3.10;;
79308;SDS011;68767;53.078;7.386;2023-05-16T03:24:00;15.13;;;2.05;;
79308;SDS011;68767;53.078;7.386;2023-05-16T03:26:27;15.63;;;2.95;;
79308;SDS011;68767;53.078;7.386;2023-05-16T03:28:53;23.23;;;3.60;;
79308;SDS011;68767;53.078;7.386;2023-05-16T03:31:20;12.95;;;2.85;;
79308;SDS011;68767;53.078;7.386;2023-05-16T03:33:47;7.53;;;1.85;;
79308;SDS011;68767;53.078;7.386;2023-05-16T03:36:13;7.03;;;2.00;;
79308;SDS011;68767;53.078;7.386;2023-05-16T03:38:40;11.07;;;2.28;;
79308;SDS011;68767;53.078;7.386;2023-05-16T03:41:07;15.75;;;2.15;;
79308;SDS011;68767;53.078;7.386;2023-05-16T03:43:34;18.33;;;2.60;;
79308;SDS011;68767;53.078;7.386;2023-05-16T03:46:00;16.55;;;2.88;;
79308;SDS011;68767;53.078;7.386;2023-05-16T03:48:28;16.35;;;2.40;;
79308;SDS011;68767;53.078;7.386;2023-05-16T03:50:55;9.70;;;2.20;;
79308;SDS011;68767;53.078;7.386;2023-05-16T03:53:21;10.90;;;2.67;;
79308;SDS011;68767;53.078;7.386;2023-05-16T03:55:48;11.35;;;2.50;;
79308;SDS011;68767;53.078;7.386;2023-05-16T03:58:15;20.75;;;2.85;;
79308;SDS011;68767;53.078;7.386;2023-05-16T04:00:42;10.70;;;2.58;;
79308;SDS011;68767;53.078;7.386;2023-05-16T04:03:08;16.23;;;4.00;;
79308;SDS011;68767;53.078;7.386;2023-05-16T04:05:35;14.27;;;2.33;;
79308;SDS011;68767;53.078;7.386;2023-05-16T04:08:02;18.40;;;2.10;;
79308;SDS011;68767;53.078;7.386;2023-05-16T04:10:29;11.20;;;2.25;;
79308;SDS011;68767;53.078;7.386;2023-05-16T04:12:55;13.48;;;2.50;;
79308;SDS011;68767;53.078;7.386;2023-05-16T04:15:22;16.30;;;2.92;;
79308;SDS011;68767;53.078;7.386;2023-05-16T04:17:49;13.02;;;2.53;;
79308;SDS011;68767;53.078;7.386;2023-05-16T04:20:16;12.68;;;2.20;;
79308;SDS011;68767;53.078;7.386;2023-05-16T04:22:42;14.88;;;2.97;;
79308;SDS011;68767;53.078;7.386;2023-05-16T04:25:09;13.57;;;2.95;;
79308;SDS011;68767;53.078;7.386;2023-05-16T04:27:37;9.88;;;2.28;;
79308;SDS011;68767;53.078;7.386;2023-05-16T04:30:04;12.27;;;2.30;;
79308;SDS011;68767;53.078;7.386;2023-05-16T04:32:31;14.55;;;2.28;;
79308;SDS011;68767;53.078;7.386;2023-05-16T04:35:00;21.02;;;3.67;;
79308;SDS011;68767;53.078;7.386;2023-05-16T04:37:27;14.57;;;3.03;;
79308;SDS011;68767;53.078;7.386;2023-05-16T04:39:54;12.65;;;2.17;;
79308;SDS011;68767;53.078;7.386;2023-05-16T04:42:21;13.82;;;2.30;;
79308;SDS011;68767;53.078;7.386;2023-05-16T04:44:48;14.88;;;2.42;;
79308;SDS011;68767;53.078;7.386;2023-05-16T04:47:15;13.55;;;2.13;;
79308;SDS011;68767;53.078;7.386;2023-05-16T04:49:42;13.57;;;2.35;;
79308;SDS011;68767;53.078;7.386;2023-05-16T04:52:09;11.18;;;2.55;;
79308;SDS011;68767;53.078;7.386;2023-05-16T04:54:37;9.43;;;2.35;;
79308;SDS011;68767;53.078;7.386;2023-05-16T04:57:04;9.50;;;2.00;;
79308;SDS011;68767;53.078;7.386;2023-05-16T04:59:31;17.75;;;2.67;;
79308;SDS011;68767;53.078;7.386;2023-05-16T05:01:57;18.23;;;2.63;;
79308;SDS011;68767;53.078;7.386;2023-05-16T05:04:24;11.32;;;2.10;;
79308;SDS011;68767;53.078;7.386;2023-05-16T05:06:51;17.23;;;2.50;;
79308;SDS011;68767;53.078;7.386;2023-05-16T05:09:18;8.90;;;1.92;;
79308;SDS011;68767;53.078;7.386;2023-05-16T05:11:45;11.48;;;2.08;;
79308;SDS011;68767;53.078;7.386;2023-05-16T05:14:11;8.98;;;2.08;;
79308;SDS011;68767;53.078;7.386;2023-05-16T05:16:38;12.20;;;2.20;;
79308;SDS011;68767;53.078;7.386;2023-05-16T05:19:05;11.13;;;2.50;;
79308;SDS011;68767;53.078;7.386;2023-05-16T05:21:32;13.40;;;2.08;;
79308;SDS011;68767;53.078;7.386;2023-05-16T05:23:58;11.80;;;2.10;;
79308;SDS011;68767;53.078;7.386;2023-05-16T05:26:25;10.65;;;1.92;;
79308;SDS011;68767;53.078;7.386;2023-05-16T05:28:53;6.93;;;2.05;;
79308;SDS011;68767;53.078;7.386;2023-05-16T05:31:30;13.32;;;1.90;;
79308;SDS011;68767;53.078;7.386;2023-05-16T05:33:59;15.43;;;2.20;;
79308;SDS011;68767;53.078;7.386;2023-05-16T05:36:26;12.93;;;1.77;;
79308;SDS011;68767;53.078;7.386;2023-05-16T05:38:53;11.50;;;2.00;;
79308;SDS011;68767;53.078;7.386;2023-05-16T05:41:20;16.30;;;4.55;;
79308;SDS011;68767;53.078;7.386;2023-05-16T05:43:47;17.35;;;2.30;;
79308;SDS011;68767;53.078;7.386;2023-05-16T05:46:15;9.77;;;1.95;;
79308;SDS011;68767;53.078;7.386;2023-05-16T05:48:42;10.70;;;1.88;;
79308;SDS011;68767;53.078;7.386;2023-05-16T05:51:09;8.75;;;2.03;;
79308;SDS011;68767;53.078;7.386;2023-05-16T05:53:36;12.15;;;2.30;;
79308;SDS011;68767;53.078;7.386;2023-05-16T05:56:03;14.13;;;2.70;;
79308;SDS011;68767;53.078;7.386;2023-05-16T05:58:29;11.63;;;1.92;;
79308;SDS011;68767;53.078;7.386;2023-05-16T06:00:59;14.35;;;2.10;;
79308;SDS011;68767;53.078;7.386;2023-05-16T06:03:26;10.10;;;2.50;;
79308;SDS011;68767;53.078;7.386;2023-05-16T06:05:53;11.88;;;2.45;;
79308;SDS011;68767;53.078;7.386;2023-05-16T06:08:20;14.65;;;2.35;;
79308;SDS011;68767;53.078;7.386;2023-05-16T06:10:46;8.95;;;1.83;;
79308;SDS011;68767;53.078;7.386;2023-05-16T06:13:13;7.68;;;1.70;;
79308;SDS011;68767;53.078;7.386;2023-05-16T06:15:40;9.15;;;1.85;;
79308;SDS011;68767;53.078;7.386;2023-05-16T06:18:07;5.82;;;1.83;;
79308;SDS011;68767;53.078;7.386;2023-05-16T06:20:34;7.07;;;1.60;;
79308;SDS011;68767;53.078;7.386;2023-05-16T06:23:00;7.65;;;1.63;;
79308;SDS011;68767;53.078;7.386;2023-05-16T06:25:27;6.93;;;1.55;;
79308;SDS011;68767;53.078;7.386;2023-05-16T06:27:54;10.82;;;2.28;;
79308;SDS011;68767;53.078;7.386;2023-05-16T06:30:21;12.38;;;2.28;;
79308;SDS011;68767;53.078;7.386;2023-05-16T06:32:48;6.60;;;2.10;;
79308;SDS011;68767;53.078;7.386;2023-05-16T06:35:14;9.50;;;1.83;;
79308;SDS011;68767;53.078;7.386;2023-05-16T06:37:41;7.43;;;1.88;;
79308;SDS011;68767;53.078;7.386;2023-05-16T06:40:08;12.57;;;2.20;;
79308;SDS011;68767;53.078;7.386;2023-05-16T06:42:35;11.48;;;1.77;;
79308;SDS011;68767;53.078;7.386;2023-05-16T06:45:02;13.23;;;2.42;;
79308;SDS011;68767;53.078;7.386;2023-05-16T06:47:29;15.57;;;2.00;;
79308;SDS011;68767;53.078;7.386;2023-05-16T06:49:55;8.05;;;1.77;;
79308;SDS011;68767;53.078;7.386;2023-05-16T06:52:22;13.25;;;2.08;;
79308;SDS011;68767;53.078;7.386;2023-05-16T06:54:49;13.07;;;2.35;;
79308;SDS011;68767;53.078;7.386;2023-05-16T06:57:16;14.30;;;2.17;;
79308;SDS011;68767;53.078;7.386;2023-05-16T06:59:42;16.48;;;2.08;;
79308;SDS011;68767;53.078;7.386;2023-05-16T07:02:09;11.05;;;3.75;;
79308;SDS011;68767;53.078;7.386;2023-05-16T07:04:36;11.50;;;2.03;;
79308;SDS011;68767;53.078;7.386;2023-05-16T07:07:03;8.02;;;1.75;;
79308;SDS011;68767;53.078;7.386;2023-05-16T07:09:32;12.65;;;1.70;;
79308;SDS011;68767;53.078;7.386;2023-05-16T07:11:59;12.20;;;2.35;;
79308;SDS011;68767;53.078;7.386;2023-05-16T07:14:25;8.50;;;1.77;;
79308;SDS011;68767;53.078;7.386;2023-05-16T07:16:52;8.98;;;1.70;;
79308;SDS011;68767;53.078;7.386;2023-05-16T07:19:19;9.93;;;2.00;;
79308;SDS011;68767;53.078;7.386;2023-05-16T07:21:46;14.70;;;2.00;;
79308;SDS011;68767;53.078;7.386;2023-05-16T07:24:13;11.23;;;1.98;;
79308;SDS011;68767;53.078;7.386;2023-05-16T07:26:40;7.93;;;1.98;;
79308;SDS011;68767;53.078;7.386;2023-05-16T07:29:06;9.68;;;2.10;;
79308;SDS011;68767;53.078;7.386;2023-05-16T07:31:33;14.70;;;2.08;;
79308;SDS011;68767;53.078;7.386;2023-05-16T07:34:00;10.57;;;1.80;;
79308;SDS011;68767;53.078;7.386;2023-05-16T07:36:27;19.77;;;2.95;;
79308;SDS011;68767;53.078;7.386;2023-05-16T07:38:54;9.63;;;1.90;;
79308;SDS011;68767;53.078;7.386;2023-05-16T07:41:21;9.68;;;1.98;;
79308;SDS011;68767;53.078;7.386;2023-05-16T07:43:47;13.63;;;1.90;;
79308;SDS011;68767;53.078;7.386;2023-05-16T07:46:14;10.50;;;1.90;;
79308;SDS011;68767;53.078;7.386;2023-05-16T07:48:41;13.55;;;2.30;;
79308;SDS011;68767;53.078;7.386;2023-05-16T07:51:08;10.65;;;1.63;;
79308;SDS011;68767;53.078;7.386;2023-05-16T07:53:35;12.63;;;1.58;;
79308;SDS011;68767;53.078;7.386;2023-05-16T07:56:02;5.32;;;1.77;;
79308;SDS011;68767;53.078;7.386;2023-05-16T07:58:29;9.18;;;2.00;;
79308;SDS011;68767;53.078;7.386;2023-05-16T08:00:56;7.60;;;1.77;;
79308;SDS011;68767;53.078;7.386;2023-05-16T08:03:23;14.70;;;2.75;;
79308;SDS011;68767;53.078;7.386;2023-05-16T08:05:50;15.10;;;3.08;;
79308;SDS011;68767;53.078;7.386;2023-05-16T08:08:17;12.10;;;2.08;;
79308;SDS011;68767;53.078;7.386;2023-05-16T08:10:44;11.60;;;2.25;;
79308;SDS011;68767;53.078;7.386;2023-05-16T08:13:11;13.82;;;2.50;;
79308;SDS011;68767;53.078;7.386;2023-05-16T08:15:38;11.02;;;2.45;;
79308;SDS011;68767;53.078;7.386;2023-05-16T08:18:05;10.90;;;2.40;;
79308;SDS011;68767;53.078;7.386;2023-05-16T08:20:38;18.75;;;3.47;;
79308;SDS011;68767;53.078;7.386;2023-05-16T08:23:04;7.60;;;1.55;;
79308;SDS011;68767;53.078;7.386;2023-05-16T08:25:31;8.90;;;2.00;;
79308;SDS011;68767;53.078;7.386;2023-05-16T08:27:58;11.10;;;1.98;;
79308;SDS011;68767;53.078;7.386;2023-05-16T08:30:27;14.00;;;2.35;;
79308;SDS011;68767;53.078;7.386;2023-05-16T08:32:55;9.95;;;1.85;;
79308;SDS011;68767;53.078;7.386;2023-05-16T08:35:22;16.75;;;2.42;;
79308;SDS011;68767;53.078;7.386;2023-05-16T08:37:48;10.40;;;1.90;;
79308;SDS011;68767;53.078;7.386;2023-05-16T08:40:16;10.27;;;2.20;;
79308;SDS011;68767;53.078;7.386;2023-05-16T08:42:44;6.20;;;1.88;;
79308;SDS011;68767;53.078;7.386;2023-05-16T08:45:11;6.63;;;1.58;;
79308;SDS011;68767;53.078;7.386;2023-05-16T08:47:38;12.85;;;1.63;;
79308;SDS011;68767;53.078;7.386;2023-05-16T08:50:08;9.70;;;2.00;;
79308;SDS011;68767;53.078;7.386;2023-05-16T08:52:35;11.07;;;1.83;;
79308;SDS011;68767;53.078;7.386;2023-05-16T08:55:03;10.43;;;1.80;;
79308;SDS011;68767;53.078;7.386;2023-05-16T08:57:38;9.90;;;1.88;;
79308;SDS011;68767;53.078;7.386;2023-05-16T09:00:08;11.90;;;1.95;;
79308;SDS011;68767;53.078;7.386;2023-05-16T09:02:39;11.35;;;2.10;;
79308;SDS011;68767;53.078;7.386;2023-05-16T09:05:07;12.63;;;1.65;;
79308;SDS011;68767;53.078;7.386;2023-05-16T09:07:34;7.78;;;1.70;;
79308;SDS011;68767;53.078;7.386;2023-05-16T09:10:01;13.32;;;2.65;;
79308;SDS011;68767;53.078;7.386;2023-05-16T09:12:28;8.43;;;2.72;;
79308;SDS011;68767;53.078;7.386;2023-05-16T09:14:54;9.70;;;2.10;;
79308;SDS011;68767;53.078;7.386;2023-05-16T09:17:22;13.45;;;1.92;;
79308;SDS011;68767;53.078;7.386;2023-05-16T09:20:16;12.95;;;2.20;;
79308;SDS011;68767;53.078;7.386;2023-05-16T09:22:49;12.95;;;2.47;;
79308;SDS011;68767;53.078;7.386;2023-05-16T09:25:17;11.23;;;2.30;;
79308;SDS011;68767;53.078;7.386;2023-05-16T09:27:57;8.43;;;1.70;;
79308;SDS011;68767;53.078;7.386;2023-05-16T09:30:27;3.00;;;1.10;;
79308;SDS011;68767;53.078;7.386;2023-05-16T09:32:55;3.00;;;0.90;;
79308;SDS011;68767;53.078;7.386;2023-05-16T09:35:22;4.28;;;1.40;;
79308;SDS011;68767;53.078;7.386;2023-05-16T09:38:15;11.25;;;1.50;;
79308;SDS011;68767;53.078;7.386;2023-05-16T09:40:43;3.50;;;1.08;;
79308;SDS011;68767;53.078;7.386;2023-05-16T09:43:10;6.53;;;1.42;;
79308;SDS011;68767;53.078;7.386;2023-05-16T09:45:39;8.60;;;1.70;;
79308;SDS011;68767;53.078;7.386;2023-05-16T09:48:10;13.27;;;1.75;;
79308;SDS011;68767;53.078;7.386;2023-05-16T09:50:45;13.02;;;1.63;;
79308;SDS011;68767;53.078;7.386;2023-05-16T09:53:13;3.78;;;1.60;;
79308;SDS011;68767;53.078;7.386;2023-05-16T09:55:39;2.83;;;1.17;;
79308;SDS011;68767;53.078;7.386;2023-05-16T09:58:06;6.15;;;1.45;;
79308;SDS011;68767;53.078;7.386;2023-05-16T10:00:33;10.10;;;2.08;;
79308;SDS011;68767;53.078;7.386;2023-05-16T10:03:00;9.68;;;2.13;;
79308;SDS011;68767;53.078;7.386;2023-05-16T10:05:31;10.07;;;1.95;;
79308;SDS011;68767;53.078;7.386;2023-05-16T10:07:58;12.93;;;1.77;;
79308;SDS011;68767;53.078;7.386;2023-05-16T10:10:25;6.38;;;1.75;;
79308;SDS011;68767;53.078;7.386;2023-05-16T10:12:52;13.40;;;2.15;;
79308;SDS011;68767;53.078;7.386;2023-05-16T10:15:18;18.55;;;2.55;;
79308;SDS011;68767;53.078;7.386;2023-05-16T10:17:50;7.00;;;1.50;;
79308;SDS011;68767;53.078;7.386;2023-05-16T10:20:19;6.18;;;1.77;;
79308;SDS011;68767;53.078;7.386;2023-05-16T10:22:47;10.57;;;1.52;;
79308;SDS011;68767;53.078;7.386;2023-05-16T10:27:48;7.35;;;1.75;;
79308;SDS011;68767;53.078;7.386;2023-05-16T10:30:16;10.45;;;2.03;;
79308;SDS011;68767;53.078;7.386;2023-05-16T10:32:43;12.35;;;1.95;;
79308;SDS011;68767;53.078;7.386;2023-05-16T10:35:11;4.85;;;1.05;;
79308;SDS011;68767;53.078;7.386;2023-05-16T10:37:38;3.83;;;1.05;;
79308;SDS011;68767;53.078;7.386;2023-05-16T10:40:05;4.50;;;1.30;;
79308;SDS011;68767;53.078;7.386;2023-05-16T10:42:33;11.52;;;1.85;;
79308;SDS011;68767;53.078;7.386;2023-05-16T10:50:02;7.95;;;1.30;;
79308;SDS011;68767;53.078;7.386;2023-05-16T10:52:32;4.32;;;1.83;;
79308;SDS011;68767;53.078;7.386;2023-05-16T10:55:01;7.07;;;1.55;;
79308;SDS011;68767;53.078;7.386;2023-05-16T10:57:28;6.43;;;1.92;;
79308;SDS011;68767;53.078;7.386;2023-05-16T10:59:58;6.90;;;1.70;;
79308;SDS011;68767;53.078;7.386;2023-05-16T11:02:28;5.22;;;1.80;;
79308;SDS011;68767;53.078;7.386;2023-05-16T11:04:56;15.75;;;1.83;;
79308;SDS011;68767;53.078;7.386;2023-05-16T11:07:25;5.22;;;2.03;;
79308;SDS011;68767;53.078;7.386;2023-05-16T11:12:47;8.45;;;2.00;;
79308;SDS011;68767;53.078;7.386;2023-05-16T11:17:44;5.07;;;1.77;;
79308;SDS011;68767;53.078;7.386;2023-05-16T11:23:23;5.40;;;1.40;;
79308;SDS011;68767;53.078;7.386;2023-05-16T11:25:52;5.35;;;1.15;;
79308;SDS011;68767;53.078;7.386;2023-05-16T11:28:20;6.40;;;1.40;;
79308;SDS011;68767;53.078;7.386;2023-05-16T11:30:50;7.22;;;1.73;;
79308;SDS011;68767;53.078;7.386;2023-05-16T11:33:22;5.13;;;1.42;;
79308;SDS011;68767;53.078;7.386;2023-05-16T11:38:46;4.25;;;1.80;;
79308;SDS011;68767;53.078;7.386;2023-05-16T11:41:13;5.13;;;1.33;;
79308;SDS011;68767;53.078;7.386;2023-05-16T11:43:43;2.20;;;0.82;;
79308;SDS011;68767;53.078;7.386;2023-05-16T11:46:13;5.70;;;1.67;;
79308;SDS011;68767;53.078;7.386;2023-05-16T11:48:41;3.83;;;1.40;;
79308;SDS011;68767;53.078;7.386;2023-05-16T11:51:09;4.30;;;1.40;;
79308;SDS011;68767;53.078;7.386;2023-05-16T11:53:36;10.13;;;1.80;;
79308;SDS011;68767;53.078;7.386;2023-05-16T11:56:05;9.15;;;1.75;;
79308;SDS011;68767;53.078;7.386;2023-05-16T11:58:32;6.90;;;1.67;;
79308;SDS011;68767;53.078;7.386;2023-05-16T12:00:59;7.63;;;1.80;;
79308;SDS011;68767;53.078;7.386;2023-05-16T12:03:29;8.45;;;1.63;;
79308;SDS011;68767;53.078;7.386;2023-05-16T12:06:01;6.20;;;1.85;;
79308;SDS011;68767;53.078;7.386;2023-05-16T12:08:28;8.30;;;1.92;;
79308;SDS011;68767;53.078;7.386;2023-05-16T12:10:56;7.00;;;1.60;;
79308;SDS011;68767;53.078;7.386;2023-05-16T12:13:23;8.00;;;2.22;;
79308;SDS011;68767;53.078;7.386;2023-05-16T12:15:50;7.47;;;1.50;;
79308;SDS011;68767;53.078;7.386;2023-05-16T12:18:18;8.35;;;1.70;;
79308;SDS011;68767;53.078;7.386;2023-05-16T12:20:47;8.85;;;1.95;;
79308;SDS011;68767;53.078;7.386;2023-05-16T12:23:13;8.38;;;2.20;;
79308;SDS011;68767;53.078;7.386;2023-05-16T12:25:44;7.30;;;2.03;;
79308;SDS011;68767;53.078;7.386;2023-05-16T12:28:12;14.73;;;2.17;;
79308;SDS011;68767;53.078;7.386;2023-05-16T12:30:40;11.63;;;2.03;;
79308;SDS011;68767;53.078;7.386;2023-05-16T12:33:11;9.13;;;1.70;;
79308;SDS011;68767;53.078;7.386;2023-05-16T12:35:39;7.88;;;1.95;;
79308;SDS011;68767;53.078;7.386;2023-05-16T12:38:06;6.72;;;1.88;;
79308;SDS011;68767;53.078;7.386;2023-05-16T12:40:37;8.45;;;1.80;;
79308;SDS011;68767;53.078;7.386;2023-05-16T12:43:18;10.55;;;2.10;;
79308;SDS011;68767;53.078;7.386;2023-05-16T12:45:52;7.47;;;1.63;;
79308;SDS011;68767;53.078;7.386;2023-05-16T12:48:20;11.88;;;2.63;;
79308;SDS011;68767;53.078;7.386;2023-05-16T12:50:47;8.60;;;2.10;;
79308;SDS011;68767;53.078;7.386;2023-05-16T12:53:15;5.05;;;2.05;;
79308;SDS011;68767;53.078;7.386;2023-05-16T12:55:42;9.50;;;2.10;;
79308;SDS011;68767;53.078;7.386;2023-05-16T12:58:09;8.63;;;2.80;;
79308;SDS011;68767;53.078;7.386;2023-05-16T13:00:37;9.13;;;3.28;;
79308;SDS011;68767;53.078;7.386;2023-05-16T13:03:04;10.35;;;3.10;;
79308;SDS011;68767;53.078;7.386;2023-05-16T13:05:32;7.93;;;2.45;;
79308;SDS011;68767;53.078;7.386;2023-05-16T13:07:59;14.32;;;2.90;;
79308;SDS011;68767;53.078;7.386;2023-05-16T13:10:26;9.60;;;2.17;;
79308;SDS011;68767;53.078;7.386;2023-05-16T13:12:54;10.82;;;2.63;;
79308;SDS011;68767;53.078;7.386;2023-05-16T13:15:25;8.90;;;2.42;;
79308;SDS011;68767;53.078;7.386;2023-05-16T13:17:53;6.75;;;2.58;;
79308;SDS011;68767;53.078;7.386;2023-05-16T13:20:20;9.10;;;2.70;;
79308;SDS011;68767;53.078;7.386;2023-05-16T13:22:47;13.95;;;3.33;;
79308;SDS011;68767;53.078;7.386;2023-05-16T13:25:14;11.45;;;2.70;;
79308;SDS011;68767;53.078;7.386;2023-05-16T13:27:41;6.97;;;2.42;;
79308;SDS011;68767;53.078;7.386;2023-05-16T13:30:08;9.63;;;2.65;;
79308;SDS011;68767;53.078;7.386;2023-05-16T13:32:35;10.52;;;3.10;;
79308;SDS011;68767;53.078;7.386;2023-05-16T13:35:02;12.57;;;3.60;;
79308;SDS011;68767;53.078;7.386;2023-05-16T13:37:29;11.35;;;2.88;;
79308;SDS011;68767;53.078;7.386;2023-05-16T13:39:56;10.57;;;3.00;;
79308;SDS011;68767;53.078;7.386;2023-05-16T13:42:23;14.05;;;2.65;;
79308;SDS011;68767;53.078;7.386;2023-05-16T13:44:50;12.68;;;3.15;;
79308;SDS011;68767;53.078;7.386;2023-05-16T13:47:17;18.02;;;3.13;;
79308;SDS011;68767;53.078;7.386;2023-05-16T13:49:44;7.78;;;2.58;;
79308;SDS011;68767;53.078;7.386;2023-05-16T13:52:11;9.70;;;2.75;;
79308;SDS011;68767;53.078;7.386;2023-05-16T13:54:38;12.75;;;3.03;;
79308;SDS011;68767;53.078;7.386;2023-05-16T13:57:07;10.82;;;3.20;;
79308;SDS011;68767;53.078;7.386;2023-05-16T13:59:33;10.32;;;3.10;;
79308;SDS011;68767;53.078;7.386;2023-05-16T14:02:20;16.60;;;4.45;;
79308;SDS011;68767;53.078;7.386;2023-05-16T14:04:47;14.68;;;4.60;;
79308;SDS011;68767;53.078;7.386;2023-05-16T14:07:15;12.15;;;3.45;;
79308;SDS011;68767;53.078;7.386;2023-05-16T14:09:42;14.57;;;4.07;;
79308;SDS011;68767;53.078;7.386;2023-05-16T14:12:10;9.18;;;3.58;;
79308;SDS011;68767;53.078;7.386;2023-05-16T14:14:36;9.90;;;2.80;;
79308;SDS011;68767;53.078;7.386;2023-05-16T14:17:03;10.45;;;3.47;;
79308;SDS011;68767;53.078;7.386;2023-05-16T14:19:30;8.00;;;3.25;;
79308;SDS011;68767;53.078;7.386;2023-05-16T14:22:00;14.30;;;3.53;;
79308;SDS011;68767;53.078;7.386;2023-05-16T14:24:26;8.52;;;3.08;;
79308;SDS011;68767;53.078;7.386;2023-05-16T14:26:53;8.45;;;3.17;;
79308;SDS011;68767;53.078;7.386;2023-05-16T14:29:20;7.28;;;2.90;;
79308;SDS011;68767;53.078;7.386;2023-05-16T14:31:47;11.85;;;3.67;;
79308;SDS011;68767;53.078;7.386;2023-05-16T14:34:14;11.07;;;4.07;;
79308;SDS011;68767;53.078;7.386;2023-05-16T14:36:41;13.05;;;3.65;;
79308;SDS011;68767;53.078;7.386;2023-05-16T14:39:08;9.27;;;3.85;;
79308;SDS011;68767;53.078;7.386;2023-05-16T14:41:35;8.70;;;2.83;;
79308;SDS011;68767;53.078;7.386;2023-05-16T14:44:02;8.77;;;3.85;;
79308;SDS011;68767;53.078;7.386;2023-05-16T14:46:28;12.43;;;3.15;;
79308;SDS011;68767;53.078;7.386;2023-05-16T14:48:55;8.23;;;3.40;;
79308;SDS011;68767;53.078;7.386;2023-05-16T14:51:22;6.45;;;3.22;;
79308;SDS011;68767;53.078;7.386;2023-05-16T14:53:49;7.97;;;2.80;;
79308;SDS011;68767;53.078;7.386;2023-05-16T14:56:15;7.45;;;3.40;;
79308;SDS011;68767;53.078;7.386;2023-05-16T14:58:42;12.18;;;3.90;;
79308;SDS011;68767;53.078;7.386;2023-05-16T15:01:09;9.65;;;3.55;;
79308;SDS011;68767;53.078;7.386;2023-05-16T15:03:36;8.95;;;3.22;;
79308;SDS011;68767;53.078;7.386;2023-05-16T15:06:08;13.63;;;3.50;;
79308;SDS011;68767;53.078;7.386;2023-05-16T15:08:35;9.10;;;2.85;;
79308;SDS011;68767;53.078;7.386;2023-05-16T15:11:03;8.35;;;3.70;;
79308;SDS011;68767;53.078;7.386;2023-05-16T15:13:30;6.68;;;3.03;;
79308;SDS011;68767;53.078;7.386;2023-05-16T15:15:57;10.05;;;3.25;;
79308;SDS011;68767;53.078;7.386;2023-05-16T15:18:24;12.57;;;3.60;;